sensor_id;sensor_type;location;lat;lon;timestamp;P1;durP1;ratioP1;P2;durP2;ratioP2
7080;SDS011;3582;51.506;11.948;2022-09-12T00:01:37;11.50;;;10.30;;
7080;SDS011;3582;51.506;11.948;2022-09-12T00:04:03;15.60;;;11.13;;
7080;SDS011;3582;51.506;11.948;2022-09-12T00:06:30;12.33;;;10.80;;
7080;SDS011;3582;51.506;11.948;2022-09-12T00:08:57;12.17;;;11.00;;
7080;SDS011;3582;51.506;11.948;2022-09-12T00:11:23;11.13;;;10.00;;
7080;SDS011;3582;51.506;11.948;2022-09-12T00:13:50;11.87;;;10.63;;
7080;SDS011;3582;51.506;11.948;2022-09-12T00:16:16;12.70;;;10.73;;
7080;SDS011;3582;51.506;11.948;2022-09-12T00:18:43;11.93;;;9.93;;
7080;SDS011;3582;51.506;11.948;2022-09-12T00:21:11;13.83;;;10.70;;
7080;SDS011;3582;51.506;11.948;2022-09-12T00:23:37;12.40;;;10.23;;
7080;SDS011;3582;51.506;11.948;2022-09-12T00:26:04;13.17;;;10.70;;
7080;SDS011;3582;51.506;11.948;2022-09-12T00:28:31;13.83;;;11.23;;
7080;SDS011;3582;51.506;11.948;2022-09-12T00:30:57;13.03;;;10.43;;
7080;SDS011;3582;51.506;11.948;2022-09-12T00:33:23;16.60;;;13.67;;
7080;SDS011;3582;51.506;11.948;2022-09-12T00:35:50;13.07;;;11.70;;
7080;SDS011;3582;51.506;11.948;2022-09-12T00:38:19;13.43;;;11.20;;
7080;SDS011;3582;51.506;11.948;2022-09-12T00:40:45;13.00;;;10.93;;
7080;SDS011;3582;51.506;11.948;2022-09-12T00:45:56;11.37;;;10.27;;
7080;SDS011;3582;51.506;11.948;2022-09-12T00:48:26;13.30;;;11.30;;
7080;SDS011;3582;51.506;11.948;2022-09-12T00:50:55;12.67;;;11.37;;
7080;SDS011;3582;51.506;11.948;2022-09-12T00:53:21;13.13;;;11.57;;
7080;SDS011;3582;51.506;11.948;2022-09-12T00:55:47;14.90;;;12.57;;
7080;SDS011;3582;51.506;11.948;2022-09-12T00:58:21;13.73;;;12.47;;
7080;SDS011;3582;51.506;11.948;2022-09-12T01:00:47;14.43;;;12.90;;
7080;SDS011;3582;51.506;11.948;2022-09-12T01:03:15;15.47;;;12.10;;
7080;SDS011;3582;51.506;11.948;2022-09-12T01:05:42;14.47;;;11.90;;
7080;SDS011;3582;51.506;11.948;2022-09-12T01:08:09;15.00;;;12.50;;
7080;SDS011;3582;51.506;11.948;2022-09-12T01:10:36;16.73;;;13.03;;
7080;SDS011;3582;51.506;11.948;2022-09-12T01:13:03;15.20;;;11.80;;
7080;SDS011;3582;51.506;11.948;2022-09-12T01:15:29;17.37;;;12.17;;
7080;SDS011;3582;51.506;11.948;2022-09-12T01:33:46;13.33;;;11.93;;
7080;SDS011;3582;51.506;11.948;2022-09-12T01:38:44;15.67;;;13.17;;
7080;SDS011;3582;51.506;11.948;2022-09-12T01:44:13;16.27;;;14.50;;
7080;SDS011;3582;51.506;11.948;2022-09-12T01:46:55;17.07;;;14.50;;
7080;SDS011;3582;51.506;11.948;2022-09-12T01:49:24;17.37;;;14.07;;
7080;SDS011;3582;51.506;11.948;2022-09-12T01:51:56;16.47;;;13.83;;
7080;SDS011;3582;51.506;11.948;2022-09-12T01:54:26;16.37;;;13.93;;
7080;SDS011;3582;51.506;11.948;2022-09-12T01:56:54;19.13;;;14.30;;
7080;SDS011;3582;51.506;11.948;2022-09-12T01:59:24;18.27;;;15.50;;
7080;SDS011;3582;51.506;11.948;2022-09-12T02:01:52;15.30;;;13.10;;
7080;SDS011;3582;51.506;11.948;2022-09-12T02:04:22;22.40;;;14.93;;
7080;SDS011;3582;51.506;11.948;2022-09-12T02:07:10;15.60;;;14.00;;
7080;SDS011;3582;51.506;11.948;2022-09-12T02:10:01;19.00;;;14.33;;
7080;SDS011;3582;51.506;11.948;2022-09-12T02:12:30;23.53;;;17.07;;
7080;SDS011;3582;51.506;11.948;2022-09-12T02:15:01;17.93;;;14.33;;
7080;SDS011;3582;51.506;11.948;2022-09-12T02:17:28;18.93;;;15.03;;
7080;SDS011;3582;51.506;11.948;2022-09-12T02:19:57;19.03;;;13.97;;
7080;SDS011;3582;51.506;11.948;2022-09-12T02:22:26;18.33;;;14.57;;
7080;SDS011;3582;51.506;11.948;2022-09-12T02:24:53;15.50;;;13.10;;
7080;SDS011;3582;51.506;11.948;2022-09-12T02:27:21;17.93;;;14.30;;
7080;SDS011;3582;51.506;11.948;2022-09-12T02:29:48;15.53;;;13.53;;
7080;SDS011;3582;51.506;11.948;2022-09-12T02:32:19;18.27;;;16.10;;
7080;SDS011;3582;51.506;11.948;2022-09-12T02:34:51;15.60;;;13.27;;
7080;SDS011;3582;51.506;11.948;2022-09-12T02:39:48;16.93;;;14.07;;
7080;SDS011;3582;51.506;11.948;2022-09-12T02:42:14;18.90;;;15.37;;
7080;SDS011;3582;51.506;11.948;2022-09-12T02:44:40;16.83;;;13.70;;
7080;SDS011;3582;51.506;11.948;2022-09-12T02:47:08;17.50;;;14.27;;
7080;SDS011;3582;51.506;11.948;2022-09-12T02:49:36;18.80;;;14.53;;
7080;SDS011;3582;51.506;11.948;2022-09-12T02:52:02;23.43;;;16.17;;
7080;SDS011;3582;51.506;11.948;2022-09-12T02:54:28;20.80;;;13.60;;
7080;SDS011;3582;51.506;11.948;2022-09-12T02:56:55;16.40;;;14.50;;
7080;SDS011;3582;51.506;11.948;2022-09-12T02:59:20;19.27;;;13.00;;
7080;SDS011;3582;51.506;11.948;2022-09-12T03:07:05;18.57;;;13.43;;
7080;SDS011;3582;51.506;11.948;2022-09-12T03:09:58;19.80;;;15.50;;
7080;SDS011;3582;51.506;11.948;2022-09-12T03:12:37;23.37;;;15.23;;
7080;SDS011;3582;51.506;11.948;2022-09-12T03:20:21;17.27;;;15.33;;
7080;SDS011;3582;51.506;11.948;2022-09-12T03:22:52;19.10;;;15.80;;
7080;SDS011;3582;51.506;11.948;2022-09-12T03:27:56;28.37;;;16.70;;
7080;SDS011;3582;51.506;11.948;2022-09-12T03:30:24;18.77;;;15.07;;
7080;SDS011;3582;51.506;11.948;2022-09-12T03:32:51;20.73;;;15.60;;
7080;SDS011;3582;51.506;11.948;2022-09-12T03:35:18;22.47;;;16.37;;
7080;SDS011;3582;51.506;11.948;2022-09-12T03:37:45;18.97;;;16.67;;
7080;SDS011;3582;51.506;11.948;2022-09-12T03:40:12;22.63;;;17.40;;
7080;SDS011;3582;51.506;11.948;2022-09-12T03:42:39;22.50;;;17.37;;
7080;SDS011;3582;51.506;11.948;2022-09-12T03:45:05;19.27;;;15.47;;
7080;SDS011;3582;51.506;11.948;2022-09-12T03:47:31;24.77;;;16.77;;
7080;SDS011;3582;51.506;11.948;2022-09-12T03:49:57;26.33;;;18.00;;
7080;SDS011;3582;51.506;11.948;2022-09-12T03:52:23;22.83;;;17.00;;
7080;SDS011;3582;51.506;11.948;2022-09-12T03:54:49;20.20;;;16.00;;
7080;SDS011;3582;51.506;11.948;2022-09-12T03:57:15;22.90;;;18.30;;
7080;SDS011;3582;51.506;11.948;2022-09-12T03:59:41;20.27;;;16.10;;
7080;SDS011;3582;51.506;11.948;2022-09-12T04:02:07;26.27;;;19.63;;
7080;SDS011;3582;51.506;11.948;2022-09-12T04:04:36;20.87;;;16.37;;
7080;SDS011;3582;51.506;11.948;2022-09-12T04:07:02;24.97;;;16.57;;
7080;SDS011;3582;51.506;11.948;2022-09-12T04:09:28;21.27;;;17.90;;
7080;SDS011;3582;51.506;11.948;2022-09-12T04:11:54;26.23;;;18.87;;
7080;SDS011;3582;51.506;11.948;2022-09-12T04:14:20;25.83;;;18.00;;
7080;SDS011;3582;51.506;11.948;2022-09-12T04:16:46;25.67;;;17.33;;
7080;SDS011;3582;51.506;11.948;2022-09-12T04:19:12;22.30;;;17.30;;
7080;SDS011;3582;51.506;11.948;2022-09-12T04:21:38;25.37;;;17.77;;
7080;SDS011;3582;51.506;11.948;2022-09-12T04:24:04;20.53;;;17.80;;
7080;SDS011;3582;51.506;11.948;2022-09-12T04:26:30;20.40;;;16.03;;
7080;SDS011;3582;51.506;11.948;2022-09-12T04:28:56;26.30;;;17.40;;
7080;SDS011;3582;51.506;11.948;2022-09-12T04:31:23;22.15;;;16.55;;
7080;SDS011;3582;51.506;11.948;2022-09-12T04:33:53;25.98;;;17.88;;
7080;SDS011;3582;51.506;11.948;2022-09-12T04:36:19;24.55;;;17.75;;
7080;SDS011;3582;51.506;11.948;2022-09-12T04:38:46;23.77;;;17.57;;
7080;SDS011;3582;51.506;11.948;2022-09-12T04:41:13;27.23;;;19.45;;
7080;SDS011;3582;51.506;11.948;2022-09-12T04:43:40;26.60;;;18.03;;
7080;SDS011;3582;51.506;11.948;2022-09-12T04:46:06;25.48;;;18.50;;
7080;SDS011;3582;51.506;11.948;2022-09-12T04:48:33;25.27;;;17.60;;
7080;SDS011;3582;51.506;11.948;2022-09-12T04:51:33;25.20;;;17.83;;
7080;SDS011;3582;51.506;11.948;2022-09-12T04:53:52;24.40;;;17.58;;
7080;SDS011;3582;51.506;11.948;2022-09-12T04:56:19;25.00;;;17.70;;
7080;SDS011;3582;51.506;11.948;2022-09-12T04:58:45;31.15;;;21.27;;
7080;SDS011;3582;51.506;11.948;2022-09-12T05:01:13;28.33;;;19.98;;
7080;SDS011;3582;51.506;11.948;2022-09-12T05:03:39;28.65;;;19.20;;
7080;SDS011;3582;51.506;11.948;2022-09-12T05:06:11;23.88;;;19.10;;
7080;SDS011;3582;51.506;11.948;2022-09-12T05:08:38;29.73;;;21.00;;
7080;SDS011;3582;51.506;11.948;2022-09-12T05:11:04;31.63;;;21.67;;
7080;SDS011;3582;51.506;11.948;2022-09-12T05:13:31;36.47;;;23.10;;
7080;SDS011;3582;51.506;11.948;2022-09-12T05:15:57;38.65;;;23.27;;
7080;SDS011;3582;51.506;11.948;2022-09-12T05:18:24;25.80;;;20.47;;
7080;SDS011;3582;51.506;11.948;2022-09-12T05:20:50;31.40;;;23.07;;
7080;SDS011;3582;51.506;11.948;2022-09-12T05:23:16;31.27;;;21.47;;
7080;SDS011;3582;51.506;11.948;2022-09-12T05:25:49;27.43;;;19.90;;
7080;SDS011;3582;51.506;11.948;2022-09-12T05:28:19;29.17;;;19.37;;
7080;SDS011;3582;51.506;11.948;2022-09-12T05:30:45;27.50;;;19.43;;
7080;SDS011;3582;51.506;11.948;2022-09-12T05:33:11;27.57;;;17.93;;
7080;SDS011;3582;51.506;11.948;2022-09-12T05:35:37;25.93;;;18.60;;
7080;SDS011;3582;51.506;11.948;2022-09-12T05:38:04;26.00;;;17.97;;
7080;SDS011;3582;51.506;11.948;2022-09-12T05:40:30;19.87;;;16.43;;
7080;SDS011;3582;51.506;11.948;2022-09-12T05:42:56;19.43;;;16.13;;
7080;SDS011;3582;51.506;11.948;2022-09-12T05:45:22;22.50;;;17.07;;
7080;SDS011;3582;51.506;11.948;2022-09-12T05:47:49;19.03;;;16.40;;
7080;SDS011;3582;51.506;11.948;2022-09-12T05:50:15;26.93;;;18.70;;
7080;SDS011;3582;51.506;11.948;2022-09-12T05:52:41;21.87;;;18.20;;
7080;SDS011;3582;51.506;11.948;2022-09-12T05:55:07;27.00;;;17.13;;
7080;SDS011;3582;51.506;11.948;2022-09-12T05:57:33;18.67;;;16.60;;
7080;SDS011;3582;51.506;11.948;2022-09-12T05:59:59;22.13;;;17.73;;
7080;SDS011;3582;51.506;11.948;2022-09-12T06:02:25;23.07;;;17.57;;
7080;SDS011;3582;51.506;11.948;2022-09-12T06:04:51;23.10;;;17.57;;
7080;SDS011;3582;51.506;11.948;2022-09-12T06:07:17;23.03;;;18.70;;
7080;SDS011;3582;51.506;11.948;2022-09-12T06:09:43;24.10;;;19.00;;
7080;SDS011;3582;51.506;11.948;2022-09-12T06:12:09;22.97;;;19.17;;
7080;SDS011;3582;51.506;11.948;2022-09-12T06:14:35;22.93;;;18.40;;
7080;SDS011;3582;51.506;11.948;2022-09-12T06:17:01;24.87;;;20.13;;
7080;SDS011;3582;51.506;11.948;2022-09-12T06:19:27;22.57;;;19.07;;
7080;SDS011;3582;51.506;11.948;2022-09-12T06:21:53;22.67;;;17.00;;
7080;SDS011;3582;51.506;11.948;2022-09-12T06:24:19;19.43;;;15.90;;
7080;SDS011;3582;51.506;11.948;2022-09-12T06:26:48;22.70;;;17.13;;
7080;SDS011;3582;51.506;11.948;2022-09-12T06:29:16;23.83;;;18.20;;
7080;SDS011;3582;51.506;11.948;2022-09-12T06:31:43;24.03;;;18.00;;
7080;SDS011;3582;51.506;11.948;2022-09-12T06:34:11;18.10;;;15.80;;
7080;SDS011;3582;51.506;11.948;2022-09-12T06:36:45;21.97;;;17.03;;
7080;SDS011;3582;51.506;11.948;2022-09-12T06:39:12;20.97;;;17.80;;
7080;SDS011;3582;51.506;11.948;2022-09-12T06:41:39;31.53;;;18.97;;
7080;SDS011;3582;51.506;11.948;2022-09-12T06:44:05;21.10;;;17.40;;
7080;SDS011;3582;51.506;11.948;2022-09-12T06:46:31;19.40;;;16.87;;
7080;SDS011;3582;51.506;11.948;2022-09-12T06:48:58;23.30;;;17.53;;
7080;SDS011;3582;51.506;11.948;2022-09-12T06:51:24;24.53;;;17.83;;
7080;SDS011;3582;51.506;11.948;2022-09-12T06:53:50;22.03;;;16.37;;
7080;SDS011;3582;51.506;11.948;2022-09-12T06:56:17;23.43;;;17.53;;
7080;SDS011;3582;51.506;11.948;2022-09-12T06:58:44;19.57;;;16.53;;
7080;SDS011;3582;51.506;11.948;2022-09-12T07:01:11;20.10;;;17.20;;
7080;SDS011;3582;51.506;11.948;2022-09-12T07:03:38;20.97;;;14.83;;
7080;SDS011;3582;51.506;11.948;2022-09-12T07:06:08;17.73;;;15.47;;
7080;SDS011;3582;51.506;11.948;2022-09-12T07:08:35;18.60;;;15.40;;
7080;SDS011;3582;51.506;11.948;2022-09-12T07:11:17;19.13;;;16.10;;
7080;SDS011;3582;51.506;11.948;2022-09-12T07:13:44;22.23;;;16.03;;
7080;SDS011;3582;51.506;11.948;2022-09-12T07:16:11;16.00;;;14.37;;
7080;SDS011;3582;51.506;11.948;2022-09-12T07:18:37;16.00;;;14.40;;
7080;SDS011;3582;51.506;11.948;2022-09-12T07:21:04;18.83;;;13.70;;
7080;SDS011;3582;51.506;11.948;2022-09-12T07:23:31;20.30;;;14.87;;
7080;SDS011;3582;51.506;11.948;2022-09-12T07:25:58;22.23;;;14.80;;
7080;SDS011;3582;51.506;11.948;2022-09-12T07:28:28;16.80;;;13.97;;
7080;SDS011;3582;51.506;11.948;2022-09-12T07:30:54;18.43;;;14.57;;
7080;SDS011;3582;51.506;11.948;2022-09-12T07:33:21;16.57;;;14.63;;
7080;SDS011;3582;51.506;11.948;2022-09-12T07:35:48;14.40;;;12.80;;
7080;SDS011;3582;51.506;11.948;2022-09-12T07:38:17;24.27;;;14.90;;
7080;SDS011;3582;51.506;11.948;2022-09-12T07:40:43;14.60;;;13.20;;
7080;SDS011;3582;51.506;11.948;2022-09-12T07:43:09;21.27;;;13.00;;
7080;SDS011;3582;51.506;11.948;2022-09-12T07:45:35;18.13;;;13.90;;
7080;SDS011;3582;51.506;11.948;2022-09-12T07:48:01;17.53;;;12.93;;
7080;SDS011;3582;51.506;11.948;2022-09-12T07:50:27;13.80;;;12.30;;
7080;SDS011;3582;51.506;11.948;2022-09-12T07:52:53;17.73;;;14.30;;
7080;SDS011;3582;51.506;11.948;2022-09-12T07:55:19;15.00;;;13.50;;
7080;SDS011;3582;51.506;11.948;2022-09-12T07:57:48;17.83;;;13.40;;
7080;SDS011;3582;51.506;11.948;2022-09-12T08:00:14;16.00;;;12.93;;
7080;SDS011;3582;51.506;11.948;2022-09-12T08:02:41;14.27;;;12.73;;
7080;SDS011;3582;51.506;11.948;2022-09-12T08:05:07;15.17;;;13.57;;
7080;SDS011;3582;51.506;11.948;2022-09-12T08:07:33;12.17;;;10.90;;
7080;SDS011;3582;51.506;11.948;2022-09-12T08:09:59;18.07;;;13.67;;
7080;SDS011;3582;51.506;11.948;2022-09-12T08:12:28;14.83;;;13.33;;
7080;SDS011;3582;51.506;11.948;2022-09-12T08:14:56;15.40;;;12.57;;
7080;SDS011;3582;51.506;11.948;2022-09-12T08:17:22;17.67;;;12.40;;
7080;SDS011;3582;51.506;11.948;2022-09-12T08:19:48;15.50;;;13.50;;
7080;SDS011;3582;51.506;11.948;2022-09-12T08:22:14;13.93;;;12.37;;
7080;SDS011;3582;51.506;11.948;2022-09-12T08:24:39;17.07;;;13.83;;
7080;SDS011;3582;51.506;11.948;2022-09-12T08:27:06;15.10;;;13.50;;
7080;SDS011;3582;51.506;11.948;2022-09-12T08:29:32;17.40;;;12.27;;
7080;SDS011;3582;51.506;11.948;2022-09-12T08:31:58;12.97;;;11.57;;
7080;SDS011;3582;51.506;11.948;2022-09-12T08:34:23;15.77;;;11.70;;
7080;SDS011;3582;51.506;11.948;2022-09-12T08:36:50;14.13;;;9.73;;
7080;SDS011;3582;51.506;11.948;2022-09-12T08:39:18;14.97;;;11.13;;
7080;SDS011;3582;51.506;11.948;2022-09-12T08:41:45;13.87;;;10.10;;
7080;SDS011;3582;51.506;11.948;2022-09-12T08:49:11;13.00;;;11.07;;
7080;SDS011;3582;51.506;11.948;2022-09-12T08:51:39;10.10;;;9.10;;
7080;SDS011;3582;51.506;11.948;2022-09-12T08:54:11;11.60;;;10.50;;
7080;SDS011;3582;51.506;11.948;2022-09-12T08:56:39;13.23;;;11.80;;
7080;SDS011;3582;51.506;11.948;2022-09-12T08:59:07;13.33;;;10.87;;
7080;SDS011;3582;51.506;11.948;2022-09-12T09:01:36;11.60;;;10.40;;
7080;SDS011;3582;51.506;11.948;2022-09-12T09:12:25;13.83;;;8.00;;
7080;SDS011;3582;51.506;11.948;2022-09-12T09:17:38;14.20;;;9.97;;
7080;SDS011;3582;51.506;11.948;2022-09-12T09:20:25;9.07;;;8.37;;
7080;SDS011;3582;51.506;11.948;2022-09-12T09:22:55;8.90;;;8.10;;
7080;SDS011;3582;51.506;11.948;2022-09-12T09:25:24;8.27;;;7.23;;
7080;SDS011;3582;51.506;11.948;2022-09-12T09:27:52;12.30;;;7.73;;
7080;SDS011;3582;51.506;11.948;2022-09-12T09:30:21;7.27;;;6.67;;
7080;SDS011;3582;51.506;11.948;2022-09-12T09:32:51;7.43;;;6.90;;
7080;SDS011;3582;51.506;11.948;2022-09-12T09:37:59;6.57;;;5.97;;
7080;SDS011;3582;51.506;11.948;2022-09-12T09:40:27;7.30;;;6.60;;
7080;SDS011;3582;51.506;11.948;2022-09-12T09:42:56;8.80;;;7.87;;
7080;SDS011;3582;51.506;11.948;2022-09-12T09:45:25;8.60;;;7.47;;
7080;SDS011;3582;51.506;11.948;2022-09-12T09:47:56;6.23;;;5.77;;
7080;SDS011;3582;51.506;11.948;2022-09-12T09:50:23;5.67;;;5.30;;
7080;SDS011;3582;51.506;11.948;2022-09-12T09:52:49;5.13;;;4.73;;
7080;SDS011;3582;51.506;11.948;2022-09-12T09:55:17;5.20;;;4.80;;
7080;SDS011;3582;51.506;11.948;2022-09-12T09:57:45;6.10;;;5.70;;
7080;SDS011;3582;51.506;11.948;2022-09-12T10:03:36;5.03;;;4.53;;
7080;SDS011;3582;51.506;11.948;2022-09-12T10:05:46;6.00;;;5.03;;
7080;SDS011;3582;51.506;11.948;2022-09-12T10:08:22;5.30;;;4.90;;
7080;SDS011;3582;51.506;11.948;2022-09-12T10:11:32;8.80;;;5.47;;
7080;SDS011;3582;51.506;11.948;2022-09-12T10:13:50;5.50;;;5.13;;
7080;SDS011;3582;51.506;11.948;2022-09-12T10:16:20;5.57;;;5.10;;
7080;SDS011;3582;51.506;11.948;2022-09-12T10:18:48;9.23;;;8.53;;
7080;SDS011;3582;51.506;11.948;2022-09-12T10:21:33;5.40;;;5.03;;
7080;SDS011;3582;51.506;11.948;2022-09-12T10:24:21;6.10;;;5.63;;
7080;SDS011;3582;51.506;11.948;2022-09-12T10:26:50;5.53;;;5.03;;
7080;SDS011;3582;51.506;11.948;2022-09-12T10:29:20;4.40;;;4.10;;
7080;SDS011;3582;51.506;11.948;2022-09-12T10:31:48;6.60;;;4.67;;
7080;SDS011;3582;51.506;11.948;2022-09-12T10:34:34;10.60;;;4.23;;
7080;SDS011;3582;51.506;11.948;2022-09-12T10:37:03;6.00;;;5.50;;
7080;SDS011;3582;51.506;11.948;2022-09-12T10:39:29;8.63;;;4.37;;
7080;SDS011;3582;51.506;11.948;2022-09-12T10:41:56;3.90;;;3.33;;
7080;SDS011;3582;51.506;11.948;2022-09-12T10:44:23;5.90;;;4.20;;
7080;SDS011;3582;51.506;11.948;2022-09-12T10:46:50;4.20;;;3.57;;
7080;SDS011;3582;51.506;11.948;2022-09-12T10:49:19;4.20;;;3.30;;
7080;SDS011;3582;51.506;11.948;2022-09-12T10:51:46;3.60;;;3.40;;
7080;SDS011;3582;51.506;11.948;2022-09-12T10:54:13;4.37;;;3.97;;
7080;SDS011;3582;51.506;11.948;2022-09-12T10:59:29;6.30;;;4.23;;
7080;SDS011;3582;51.506;11.948;2022-09-12T11:12:24;21.43;;;8.10;;
7080;SDS011;3582;51.506;11.948;2022-09-12T11:20:31;4.83;;;3.60;;
7080;SDS011;3582;51.506;11.948;2022-09-12T11:23:03;7.97;;;6.80;;
7080;SDS011;3582;51.506;11.948;2022-09-12T11:25:45;4.80;;;3.67;;
7080;SDS011;3582;51.506;11.948;2022-09-12T11:30:50;4.57;;;4.27;;
7080;SDS011;3582;51.506;11.948;2022-09-12T11:35:59;3.57;;;3.27;;
7080;SDS011;3582;51.506;11.948;2022-09-12T11:38:39;5.23;;;4.10;;
7080;SDS011;3582;51.506;11.948;2022-09-12T11:41:08;3.70;;;3.40;;
7080;SDS011;3582;51.506;11.948;2022-09-12T11:43:40;2.70;;;2.50;;
7080;SDS011;3582;51.506;11.948;2022-09-12T11:46:18;3.50;;;3.30;;
7080;SDS011;3582;51.506;11.948;2022-09-12T11:51:16;3.47;;;2.60;;
7080;SDS011;3582;51.506;11.948;2022-09-12T11:53:42;5.90;;;3.40;;
7080;SDS011;3582;51.506;11.948;2022-09-12T11:56:12;3.23;;;3.03;;
7080;SDS011;3582;51.506;11.948;2022-09-12T11:58:40;4.70;;;3.20;;
7080;SDS011;3582;51.506;11.948;2022-09-12T12:03:39;3.53;;;2.93;;
7080;SDS011;3582;51.506;11.948;2022-09-12T12:08:39;11.83;;;3.93;;
7080;SDS011;3582;51.506;11.948;2022-09-12T12:11:05;3.67;;;3.27;;
7080;SDS011;3582;51.506;11.948;2022-09-12T12:13:35;4.13;;;2.63;;
7080;SDS011;3582;51.506;11.948;2022-09-12T12:16:04;7.30;;;2.80;;
7080;SDS011;3582;51.506;11.948;2022-09-12T12:18:31;2.80;;;2.60;;
7080;SDS011;3582;51.506;11.948;2022-09-12T12:21:17;5.10;;;3.27;;
7080;SDS011;3582;51.506;11.948;2022-09-12T12:29:07;4.73;;;2.77;;
7080;SDS011;3582;51.506;11.948;2022-09-12T12:32:34;8.03;;;4.40;;
7080;SDS011;3582;51.506;11.948;2022-09-12T12:36:55;9.60;;;3.20;;
7080;SDS011;3582;51.506;11.948;2022-09-12T12:44:52;4.47;;;2.70;;
7080;SDS011;3582;51.506;11.948;2022-09-12T12:50:00;2.70;;;2.50;;
7080;SDS011;3582;51.506;11.948;2022-09-12T12:52:27;5.03;;;3.77;;
7080;SDS011;3582;51.506;11.948;2022-09-12T12:54:59;2.93;;;2.73;;
7080;SDS011;3582;51.506;11.948;2022-09-12T12:57:38;3.43;;;3.03;;
7080;SDS011;3582;51.506;11.948;2022-09-12T13:00:06;3.40;;;3.20;;
7080;SDS011;3582;51.506;11.948;2022-09-12T13:02:40;2.83;;;2.50;;
7080;SDS011;3582;51.506;11.948;2022-09-12T13:05:15;2.73;;;2.30;;
7080;SDS011;3582;51.506;11.948;2022-09-12T13:07:42;5.40;;;3.17;;
7080;SDS011;3582;51.506;11.948;2022-09-12T13:10:18;3.20;;;2.90;;
7080;SDS011;3582;51.506;11.948;2022-09-12T13:12:47;2.30;;;2.20;;
7080;SDS011;3582;51.506;11.948;2022-09-12T13:17:58;2.93;;;2.83;;
7080;SDS011;3582;51.506;11.948;2022-09-12T13:20:27;3.90;;;2.83;;
7080;SDS011;3582;51.506;11.948;2022-09-12T13:22:55;4.27;;;2.97;;
7080;SDS011;3582;51.506;11.948;2022-09-12T13:30:25;3.30;;;3.00;;
7080;SDS011;3582;51.506;11.948;2022-09-12T13:32:51;3.47;;;2.80;;
7080;SDS011;3582;51.506;11.948;2022-09-12T13:35:28;2.97;;;2.77;;
7080;SDS011;3582;51.506;11.948;2022-09-12T13:37:58;3.17;;;2.97;;
7080;SDS011;3582;51.506;11.948;2022-09-12T13:43:03;2.70;;;2.50;;
7080;SDS011;3582;51.506;11.948;2022-09-12T13:45:34;3.37;;;2.87;;
7080;SDS011;3582;51.506;11.948;2022-09-12T13:48:00;2.53;;;2.43;;
7080;SDS011;3582;51.506;11.948;2022-09-12T13:50:29;3.27;;;2.27;;
7080;SDS011;3582;51.506;11.948;2022-09-12T13:52:57;2.67;;;2.47;;
7080;SDS011;3582;51.506;11.948;2022-09-12T13:55:26;3.20;;;3.00;;
7080;SDS011;3582;51.506;11.948;2022-09-12T13:57:55;3.50;;;2.50;;
7080;SDS011;3582;51.506;11.948;2022-09-12T14:00:22;3.03;;;2.57;;
7080;SDS011;3582;51.506;11.948;2022-09-12T14:02:48;5.03;;;2.63;;
7080;SDS011;3582;51.506;11.948;2022-09-12T14:05:34;2.57;;;2.40;;
7080;SDS011;3582;51.506;11.948;2022-09-12T14:08:04;2.60;;;2.40;;
7080;SDS011;3582;51.506;11.948;2022-09-12T14:10:35;3.50;;;3.20;;
7080;SDS011;3582;51.506;11.948;2022-09-12T14:13:03;2.77;;;2.57;;
7080;SDS011;3582;51.506;11.948;2022-09-12T14:15:30;2.90;;;2.70;;
7080;SDS011;3582;51.506;11.948;2022-09-12T14:17:58;3.40;;;2.60;;
7080;SDS011;3582;51.506;11.948;2022-09-12T14:20:25;2.50;;;2.40;;
7080;SDS011;3582;51.506;11.948;2022-09-12T14:22:55;2.80;;;2.60;;
7080;SDS011;3582;51.506;11.948;2022-09-12T14:25:24;2.53;;;2.37;;
7080;SDS011;3582;51.506;11.948;2022-09-12T14:27:54;3.97;;;2.63;;
7080;SDS011;3582;51.506;11.948;2022-09-12T14:30:24;4.10;;;2.70;;
7080;SDS011;3582;51.506;11.948;2022-09-12T14:33:03;2.20;;;2.10;;
7080;SDS011;3582;51.506;11.948;2022-09-12T14:35:29;2.90;;;2.47;;
7080;SDS011;3582;51.506;11.948;2022-09-12T14:37:57;2.87;;;2.67;;
7080;SDS011;3582;51.506;11.948;2022-09-12T14:40:30;2.23;;;2.00;;
7080;SDS011;3582;51.506;11.948;2022-09-12T14:42:56;6.70;;;2.90;;
7080;SDS011;3582;51.506;11.948;2022-09-12T14:45:23;3.60;;;2.17;;
7080;SDS011;3582;51.506;11.948;2022-09-12T14:47:50;3.20;;;2.93;;
7080;SDS011;3582;51.506;11.948;2022-09-12T14:50:18;2.87;;;2.67;;
7080;SDS011;3582;51.506;11.948;2022-09-12T14:52:44;3.03;;;2.83;;
7080;SDS011;3582;51.506;11.948;2022-09-12T14:55:22;7.60;;;3.50;;
7080;SDS011;3582;51.506;11.948;2022-09-12T14:58:06;2.77;;;2.57;;
7080;SDS011;3582;51.506;11.948;2022-09-12T15:00:32;3.20;;;3.00;;
7080;SDS011;3582;51.506;11.948;2022-09-12T15:03:14;2.30;;;2.20;;
7080;SDS011;3582;51.506;11.948;2022-09-12T15:05:49;2.23;;;2.13;;
7080;SDS011;3582;51.506;11.948;2022-09-12T15:08:15;3.40;;;2.90;;
7080;SDS011;3582;51.506;11.948;2022-09-12T15:10:41;3.40;;;3.13;;
7080;SDS011;3582;51.506;11.948;2022-09-12T15:15:54;2.60;;;2.40;;
7080;SDS011;3582;51.506;11.948;2022-09-12T15:18:22;2.70;;;2.50;;
7080;SDS011;3582;51.506;11.948;2022-09-12T15:20:49;2.53;;;2.40;;
7080;SDS011;3582;51.506;11.948;2022-09-12T15:23:19;3.63;;;3.33;;
7080;SDS011;3582;51.506;11.948;2022-09-12T15:25:50;5.37;;;2.80;;
7080;SDS011;3582;51.506;11.948;2022-09-12T15:28:19;3.73;;;2.70;;
7080;SDS011;3582;51.506;11.948;2022-09-12T15:30:46;2.60;;;2.50;;
7080;SDS011;3582;51.506;11.948;2022-09-12T15:33:14;3.37;;;2.90;;
7080;SDS011;3582;51.506;11.948;2022-09-12T15:35:40;2.67;;;2.50;;
7080;SDS011;3582;51.506;11.948;2022-09-12T15:38:06;3.47;;;3.27;;
7080;SDS011;3582;51.506;11.948;2022-09-12T15:40:32;3.80;;;2.77;;
7080;SDS011;3582;51.506;11.948;2022-09-12T15:42:58;3.40;;;3.20;;
7080;SDS011;3582;51.506;11.948;2022-09-12T15:45:25;3.50;;;3.00;;
7080;SDS011;3582;51.506;11.948;2022-09-12T15:47:52;2.77;;;2.57;;
7080;SDS011;3582;51.506;11.948;2022-09-12T15:50:18;2.63;;;2.43;;
7080;SDS011;3582;51.506;11.948;2022-09-12T15:52:44;3.97;;;2.60;;
7080;SDS011;3582;51.506;11.948;2022-09-12T15:55:20;2.90;;;2.70;;
7080;SDS011;3582;51.506;11.948;2022-09-12T15:57:46;5.57;;;2.63;;
7080;SDS011;3582;51.506;11.948;2022-09-12T16:00:13;3.17;;;2.93;;
7080;SDS011;3582;51.506;11.948;2022-09-12T16:02:39;7.72;;;3.88;;
7080;SDS011;3582;51.506;11.948;2022-09-12T16:05:05;3.33;;;2.90;;
7080;SDS011;3582;51.506;11.948;2022-09-12T16:07:36;6.23;;;3.30;;
7080;SDS011;3582;51.506;11.948;2022-09-12T16:10:02;3.67;;;2.63;;
7080;SDS011;3582;51.506;11.948;2022-09-12T16:12:28;3.43;;;3.13;;
7080;SDS011;3582;51.506;11.948;2022-09-12T16:14:54;4.83;;;3.70;;
7080;SDS011;3582;51.506;11.948;2022-09-12T16:17:20;9.87;;;3.37;;
7080;SDS011;3582;51.506;11.948;2022-09-12T16:19:46;3.80;;;2.80;;
7080;SDS011;3582;51.506;11.948;2022-09-12T16:22:12;3.13;;;2.90;;
7080;SDS011;3582;51.506;11.948;2022-09-12T16:24:38;3.00;;;2.80;;
7080;SDS011;3582;51.506;11.948;2022-09-12T16:27:04;4.73;;;2.60;;
7080;SDS011;3582;51.506;11.948;2022-09-12T16:29:30;4.47;;;2.87;;
7080;SDS011;3582;51.506;11.948;2022-09-12T16:31:56;3.07;;;2.77;;
7080;SDS011;3582;51.506;11.948;2022-09-12T16:34:22;3.97;;;2.90;;
7080;SDS011;3582;51.506;11.948;2022-09-12T16:36:48;3.00;;;2.80;;
7080;SDS011;3582;51.506;11.948;2022-09-12T16:39:14;7.07;;;4.53;;
7080;SDS011;3582;51.506;11.948;2022-09-12T16:41:40;6.47;;;3.97;;
7080;SDS011;3582;51.506;11.948;2022-09-12T16:44:06;2.57;;;2.37;;
7080;SDS011;3582;51.506;11.948;2022-09-12T16:46:32;3.20;;;2.90;;
7080;SDS011;3582;51.506;11.948;2022-09-12T16:48:58;3.43;;;2.77;;
7080;SDS011;3582;51.506;11.948;2022-09-12T16:51:26;6.23;;;3.73;;
7080;SDS011;3582;51.506;11.948;2022-09-12T16:53:53;4.50;;;3.50;;
7080;SDS011;3582;51.506;11.948;2022-09-12T16:56:18;3.30;;;3.00;;